sensor_id;sensor_type;location;lat;lon;timestamp;P1;durP1;ratioP1;P2;durP2;ratioP2
82646;SDS011;72325;41.910;22.404;2023-11-22T00:03:15;12.20;;;7.40;;
82646;SDS011;72325;41.910;22.404;2023-11-22T00:05:41;7.63;;;4.78;;
82646;SDS011;72325;41.910;22.404;2023-11-22T00:08:08;21.25;;;12.80;;
82646;SDS011;72325;41.910;22.404;2023-11-22T00:10:34;16.13;;;9.48;;
82646;SDS011;72325;41.910;22.404;2023-11-22T00:13:00;9.65;;;7.00;;
82646;SDS011;72325;41.910;22.404;2023-11-22T00:18:29;13.95;;;9.20;;
82646;SDS011;72325;41.910;22.404;2023-11-22T00:20:56;10.85;;;8.95;;
82646;SDS011;72325;41.910;22.404;2023-11-22T00:23:24;11.27;;;8.90;;
82646;SDS011;72325;41.910;22.404;2023-11-22T00:25:54;11.60;;;8.50;;
82646;SDS011;72325;41.910;22.404;2023-11-22T00:28:20;9.73;;;7.88;;
82646;SDS011;72325;41.910;22.404;2023-11-22T00:30:46;10.48;;;8.05;;
82646;SDS011;72325;41.910;22.404;2023-11-22T00:33:12;9.60;;;7.25;;
82646;SDS011;72325;41.910;22.404;2023-11-22T00:35:39;10.02;;;7.15;;
82646;SDS011;72325;41.910;22.404;2023-11-22T00:38:05;9.13;;;6.90;;
82646;SDS011;72325;41.910;22.404;2023-11-22T00:40:31;9.38;;;6.55;;
82646;SDS011;72325;41.910;22.404;2023-11-22T00:42:57;8.52;;;6.18;;
82646;SDS011;72325;41.910;22.404;2023-11-22T00:48:27;15.30;;;6.10;;
82646;SDS011;72325;41.910;22.404;2023-11-22T00:50:53;10.23;;;6.43;;
82646;SDS011;72325;41.910;22.404;2023-11-22T00:53:19;8.05;;;6.22;;
82646;SDS011;72325;41.910;22.404;2023-11-22T00:55:45;7.57;;;5.63;;
82646;SDS011;72325;41.910;22.404;2023-11-22T00:58:11;9.02;;;5.95;;
82646;SDS011;72325;41.910;22.404;2023-11-22T01:00:37;8.10;;;6.32;;
82646;SDS011;72325;41.910;22.404;2023-11-22T01:03:03;7.93;;;6.05;;
82646;SDS011;72325;41.910;22.404;2023-11-22T01:05:30;10.02;;;6.28;;
82646;SDS011;72325;41.910;22.404;2023-11-22T01:07:56;8.60;;;5.97;;
82646;SDS011;72325;41.910;22.404;2023-11-22T01:10:22;8.25;;;5.40;;
82646;SDS011;72325;41.910;22.404;2023-11-22T01:12:48;8.70;;;6.68;;
82646;SDS011;72325;41.910;22.404;2023-11-22T01:18:18;9.90;;;7.20;;
82646;SDS011;72325;41.910;22.404;2023-11-22T01:20:44;15.80;;;7.90;;
82646;SDS011;72325;41.910;22.404;2023-11-22T01:23:10;10.38;;;6.75;;
82646;SDS011;72325;41.910;22.404;2023-11-22T01:25:36;6.40;;;4.80;;
82646;SDS011;72325;41.910;22.404;2023-11-22T01:28:02;11.75;;;7.05;;
82646;SDS011;72325;41.910;22.404;2023-11-22T01:33:32;8.55;;;5.43;;
82646;SDS011;72325;41.910;22.404;2023-11-22T01:36:01;6.95;;;5.47;;
82646;SDS011;72325;41.910;22.404;2023-11-22T01:38:27;30.38;;;16.30;;
82646;SDS011;72325;41.910;22.404;2023-11-22T01:40:53;31.00;;;18.23;;
82646;SDS011;72325;41.910;22.404;2023-11-22T01:43:20;33.58;;;18.15;;
82646;SDS011;72325;41.910;22.404;2023-11-22T01:45:49;34.85;;;19.70;;
82646;SDS011;72325;41.910;22.404;2023-11-22T01:48:15;30.30;;;17.13;;
82646;SDS011;72325;41.910;22.404;2023-11-22T01:50:44;24.00;;;14.40;;
82646;SDS011;72325;41.910;22.404;2023-11-22T01:53:11;19.00;;;10.95;;
82646;SDS011;72325;41.910;22.404;2023-11-22T01:55:41;16.58;;;9.93;;
82646;SDS011;72325;41.910;22.404;2023-11-22T01:58:08;16.52;;;9.65;;
82646;SDS011;72325;41.910;22.404;2023-11-22T02:03:38;9.23;;;7.55;;
82646;SDS011;72325;41.910;22.404;2023-11-22T02:06:05;11.13;;;7.35;;
82646;SDS011;72325;41.910;22.404;2023-11-22T02:08:31;13.55;;;9.13;;
82646;SDS011;72325;41.910;22.404;2023-11-22T02:11:00;18.48;;;11.82;;
82646;SDS011;72325;41.910;22.404;2023-11-22T02:13:30;37.45;;;22.50;;
82646;SDS011;72325;41.910;22.404;2023-11-22T02:15:56;19.13;;;12.10;;
82646;SDS011;72325;41.910;22.404;2023-11-22T02:18:25;19.02;;;12.38;;
82646;SDS011;72325;41.910;22.404;2023-11-22T02:20:51;17.85;;;12.00;;
82646;SDS011;72325;41.910;22.404;2023-11-22T02:23:17;14.75;;;10.32;;
82646;SDS011;72325;41.910;22.404;2023-11-22T02:25:43;14.15;;;9.93;;
82646;SDS011;72325;41.910;22.404;2023-11-22T02:28:11;13.98;;;8.55;;
82646;SDS011;72325;41.910;22.404;2023-11-22T02:33:40;10.95;;;8.40;;
82646;SDS011;72325;41.910;22.404;2023-11-22T02:36:07;11.07;;;7.30;;
82646;SDS011;72325;41.910;22.404;2023-11-22T02:38:33;11.10;;;8.18;;
82646;SDS011;72325;41.910;22.404;2023-11-22T02:41:00;11.57;;;7.45;;
82646;SDS011;72325;41.910;22.404;2023-11-22T02:43:27;10.90;;;7.32;;
82646;SDS011;72325;41.910;22.404;2023-11-22T02:45:53;13.20;;;10.27;;
82646;SDS011;72325;41.910;22.404;2023-11-22T02:48:19;20.38;;;13.50;;
82646;SDS011;72325;41.910;22.404;2023-11-22T02:50:45;17.77;;;12.40;;
82646;SDS011;72325;41.910;22.404;2023-11-22T02:53:11;19.95;;;12.95;;
82646;SDS011;72325;41.910;22.404;2023-11-22T02:55:37;18.83;;;12.90;;
82646;SDS011;72325;41.910;22.404;2023-11-22T02:58:04;17.42;;;11.63;;
82646;SDS011;72325;41.910;22.404;2023-11-22T03:03:34;17.38;;;9.85;;
82646;SDS011;72325;41.910;22.404;2023-11-22T03:06:01;11.30;;;7.68;;
82646;SDS011;72325;41.910;22.404;2023-11-22T03:08:27;10.85;;;7.03;;
82646;SDS011;72325;41.910;22.404;2023-11-22T03:10:53;11.85;;;8.43;;
82646;SDS011;72325;41.910;22.404;2023-11-22T03:13:19;13.18;;;9.40;;
82646;SDS011;72325;41.910;22.404;2023-11-22T03:18:49;14.40;;;8.38;;
82646;SDS011;72325;41.910;22.404;2023-11-22T03:21:16;15.55;;;9.32;;
82646;SDS011;72325;41.910;22.404;2023-11-22T03:23:42;18.55;;;12.00;;
82646;SDS011;72325;41.910;22.404;2023-11-22T03:26:08;18.17;;;11.95;;
82646;SDS011;72325;41.910;22.404;2023-11-22T03:28:35;12.65;;;8.57;;
82646;SDS011;72325;41.910;22.404;2023-11-22T03:31:01;16.83;;;10.52;;
82646;SDS011;72325;41.910;22.404;2023-11-22T03:33:28;12.73;;;9.32;;
82646;SDS011;72325;41.910;22.404;2023-11-22T03:35:54;13.73;;;9.20;;
82646;SDS011;72325;41.910;22.404;2023-11-22T03:38:20;11.75;;;8.63;;
82646;SDS011;72325;41.910;22.404;2023-11-22T03:40:46;12.32;;;8.35;;
82646;SDS011;72325;41.910;22.404;2023-11-22T03:43:12;13.57;;;9.05;;
82646;SDS011;72325;41.910;22.404;2023-11-22T03:48:42;15.02;;;8.90;;
82646;SDS011;72325;41.910;22.404;2023-11-22T03:51:08;30.98;;;17.20;;
82646;SDS011;72325;41.910;22.404;2023-11-22T03:53:35;17.90;;;12.05;;
82646;SDS011;72325;41.910;22.404;2023-11-22T03:56:01;19.85;;;12.07;;
82646;SDS011;72325;41.910;22.404;2023-11-22T03:58:27;17.83;;;9.93;;
82646;SDS011;72325;41.910;22.404;2023-11-22T04:03:57;14.02;;;11.27;;
82646;SDS011;72325;41.910;22.404;2023-11-22T04:06:23;11.85;;;8.88;;
82646;SDS011;72325;41.910;22.404;2023-11-22T04:08:49;14.52;;;9.00;;
82646;SDS011;72325;41.910;22.404;2023-11-22T04:11:15;15.20;;;9.98;;
82646;SDS011;72325;41.910;22.404;2023-11-22T04:13:43;13.57;;;9.02;;
82646;SDS011;72325;41.910;22.404;2023-11-22T04:16:09;15.15;;;9.38;;
82646;SDS011;72325;41.910;22.404;2023-11-22T04:18:40;12.13;;;8.73;;
82646;SDS011;72325;41.910;22.404;2023-11-22T04:21:09;11.40;;;8.75;;
82646;SDS011;72325;41.910;22.404;2023-11-22T04:23:35;14.10;;;9.45;;
82646;SDS011;72325;41.910;22.404;2023-11-22T04:26:01;10.77;;;7.78;;
82646;SDS011;72325;41.910;22.404;2023-11-22T04:28:28;12.27;;;7.72;;
82646;SDS011;72325;41.910;22.404;2023-11-22T04:34:00;12.82;;;9.18;;
82646;SDS011;72325;41.910;22.404;2023-11-22T04:36:27;13.35;;;10.50;;
82646;SDS011;72325;41.910;22.404;2023-11-22T04:38:54;13.98;;;10.43;;
82646;SDS011;72325;41.910;22.404;2023-11-22T04:41:20;25.63;;;16.08;;
82646;SDS011;72325;41.910;22.404;2023-11-22T04:43:47;22.80;;;14.30;;
82646;SDS011;72325;41.910;22.404;2023-11-22T04:46:14;19.92;;;14.07;;
82646;SDS011;72325;41.910;22.404;2023-11-22T04:48:40;19.05;;;14.15;;
82646;SDS011;72325;41.910;22.404;2023-11-22T04:51:10;17.10;;;12.55;;
82646;SDS011;72325;41.910;22.404;2023-11-22T04:53:36;17.77;;;12.77;;
82646;SDS011;72325;41.910;22.404;2023-11-22T04:56:02;17.70;;;12.00;;
82646;SDS011;72325;41.910;22.404;2023-11-22T04:58:30;14.48;;;10.82;;
82646;SDS011;72325;41.910;22.404;2023-11-22T05:04:00;17.08;;;11.52;;
82646;SDS011;72325;41.910;22.404;2023-11-22T05:06:26;14.80;;;10.82;;
82646;SDS011;72325;41.910;22.404;2023-11-22T05:08:54;12.85;;;10.00;;
82646;SDS011;72325;41.910;22.404;2023-11-22T05:11:20;13.15;;;10.18;;
82646;SDS011;72325;41.910;22.404;2023-11-22T05:13:46;15.65;;;11.90;;
82646;SDS011;72325;41.910;22.404;2023-11-22T05:16:15;16.70;;;11.77;;
82646;SDS011;72325;41.910;22.404;2023-11-22T05:18:41;15.93;;;10.20;;
82646;SDS011;72325;41.910;22.404;2023-11-22T05:21:07;14.73;;;10.70;;
82646;SDS011;72325;41.910;22.404;2023-11-22T05:23:33;15.25;;;10.88;;
82646;SDS011;72325;41.910;22.404;2023-11-22T05:26:02;15.27;;;11.90;;
82646;SDS011;72325;41.910;22.404;2023-11-22T05:28:30;21.55;;;15.25;;
82646;SDS011;72325;41.910;22.404;2023-11-22T05:34:00;21.27;;;12.93;;
82646;SDS011;72325;41.910;22.404;2023-11-22T05:36:26;22.88;;;15.90;;
82646;SDS011;72325;41.910;22.404;2023-11-22T05:38:52;26.98;;;18.58;;
82646;SDS011;72325;41.910;22.404;2023-11-22T05:41:18;25.08;;;17.73;;
82646;SDS011;72325;41.910;22.404;2023-11-22T05:43:44;33.10;;;23.30;;
82646;SDS011;72325;41.910;22.404;2023-11-22T05:49:14;33.33;;;20.85;;
82646;SDS011;72325;41.910;22.404;2023-11-22T05:51:40;35.03;;;21.10;;
82646;SDS011;72325;41.910;22.404;2023-11-22T05:54:06;32.70;;;20.00;;
82646;SDS011;72325;41.910;22.404;2023-11-22T05:56:32;28.50;;;17.42;;
82646;SDS011;72325;41.910;22.404;2023-11-22T05:58:58;26.80;;;18.30;;
82646;SDS011;72325;41.910;22.404;2023-11-22T06:01:25;25.65;;;17.90;;
82646;SDS011;72325;41.910;22.404;2023-11-22T06:03:55;30.27;;;21.02;;
82646;SDS011;72325;41.910;22.404;2023-11-22T06:06:21;42.08;;;27.05;;
82646;SDS011;72325;41.910;22.404;2023-11-22T06:08:48;47.17;;;31.75;;
82646;SDS011;72325;41.910;22.404;2023-11-22T06:11:14;48.72;;;32.03;;
82646;SDS011;72325;41.910;22.404;2023-11-22T06:13:41;69.65;;;41.78;;
82646;SDS011;72325;41.910;22.404;2023-11-22T06:19:15;38.47;;;24.02;;
82646;SDS011;72325;41.910;22.404;2023-11-22T06:21:41;56.90;;;33.83;;
82646;SDS011;72325;41.910;22.404;2023-11-22T06:24:07;30.42;;;19.48;;
82646;SDS011;72325;41.910;22.404;2023-11-22T06:26:36;21.98;;;16.65;;
82646;SDS011;72325;41.910;22.404;2023-11-22T06:29:05;43.63;;;28.80;;
82646;SDS011;72325;41.910;22.404;2023-11-22T06:34:53;43.53;;;30.60;;
82646;SDS011;72325;41.910;22.404;2023-11-22T06:37:19;48.20;;;32.03;;
82646;SDS011;72325;41.910;22.404;2023-11-22T06:39:46;34.65;;;23.50;;
82646;SDS011;72325;41.910;22.404;2023-11-22T06:42:12;20.40;;;14.52;;
82646;SDS011;72325;41.910;22.404;2023-11-22T06:44:38;25.20;;;18.30;;
82646;SDS011;72325;41.910;22.404;2023-11-22T06:47:07;38.13;;;24.13;;
82646;SDS011;72325;41.910;22.404;2023-11-22T06:49:34;45.90;;;31.10;;
82646;SDS011;72325;41.910;22.404;2023-11-22T06:52:00;36.72;;;26.58;;
82646;SDS011;72325;41.910;22.404;2023-11-22T06:54:26;37.47;;;24.33;;
82646;SDS011;72325;41.910;22.404;2023-11-22T06:56:52;27.38;;;21.38;;
82646;SDS011;72325;41.910;22.404;2023-11-22T06:59:18;31.70;;;23.02;;
82646;SDS011;72325;41.910;22.404;2023-11-22T07:01:44;30.95;;;22.33;;
82646;SDS011;72325;41.910;22.404;2023-11-22T07:04:10;24.90;;;19.40;;
82646;SDS011;72325;41.910;22.404;2023-11-22T07:06:37;27.05;;;20.45;;
82646;SDS011;72325;41.910;22.404;2023-11-22T07:09:04;22.20;;;16.98;;
82646;SDS011;72325;41.910;22.404;2023-11-22T07:11:30;22.85;;;15.85;;
82646;SDS011;72325;41.910;22.404;2023-11-22T07:13:57;33.10;;;24.90;;
82646;SDS011;72325;41.910;22.404;2023-11-22T07:19:26;31.40;;;24.95;;
82646;SDS011;72325;41.910;22.404;2023-11-22T07:21:53;38.35;;;28.48;;
82646;SDS011;72325;41.910;22.404;2023-11-22T07:24:20;51.15;;;39.17;;
82646;SDS011;72325;41.910;22.404;2023-11-22T07:26:46;33.55;;;22.70;;
82646;SDS011;72325;41.910;22.404;2023-11-22T07:29:12;42.10;;;26.88;;
82646;SDS011;72325;41.910;22.404;2023-11-22T07:34:42;39.50;;;23.73;;
82646;SDS011;72325;41.910;22.404;2023-11-22T07:37:08;28.90;;;20.85;;
82646;SDS011;72325;41.910;22.404;2023-11-22T07:39:35;24.05;;;17.20;;
82646;SDS011;72325;41.910;22.404;2023-11-22T07:42:03;20.33;;;14.07;;
82646;SDS011;72325;41.910;22.404;2023-11-22T07:44:32;26.35;;;17.40;;
82646;SDS011;72325;41.910;22.404;2023-11-22T07:47:00;25.00;;;19.33;;
82646;SDS011;72325;41.910;22.404;2023-11-22T07:49:27;26.13;;;19.02;;
82646;SDS011;72325;41.910;22.404;2023-11-22T07:51:57;23.73;;;16.63;;
82646;SDS011;72325;41.910;22.404;2023-11-22T07:54:23;22.98;;;15.40;;
82646;SDS011;72325;41.910;22.404;2023-11-22T07:56:50;20.45;;;14.10;;
82646;SDS011;72325;41.910;22.404;2023-11-22T07:59:17;18.70;;;11.73;;
82646;SDS011;72325;41.910;22.404;2023-11-22T08:04:47;22.88;;;15.80;;
82646;SDS011;72325;41.910;22.404;2023-11-22T08:07:15;22.83;;;16.30;;
82646;SDS011;72325;41.910;22.404;2023-11-22T08:09:42;14.30;;;11.52;;
82646;SDS011;72325;41.910;22.404;2023-11-22T08:12:08;27.15;;;17.40;;
82646;SDS011;72325;41.910;22.404;2023-11-22T08:14:39;21.52;;;18.60;;
82646;SDS011;72325;41.910;22.404;2023-11-22T08:20:27;28.15;;;21.98;;
82646;SDS011;72325;41.910;22.404;2023-11-22T08:22:53;17.02;;;11.95;;
82646;SDS011;72325;41.910;22.404;2023-11-22T08:25:19;34.13;;;24.38;;
82646;SDS011;72325;41.910;22.404;2023-11-22T08:27:45;26.52;;;20.60;;
82646;SDS011;72325;41.910;22.404;2023-11-22T08:30:11;21.52;;;18.20;;
82646;SDS011;72325;41.910;22.404;2023-11-22T08:32:41;25.13;;;20.30;;
82646;SDS011;72325;41.910;22.404;2023-11-22T08:35:10;33.70;;;24.90;;
82646;SDS011;72325;41.910;22.404;2023-11-22T08:37:39;15.68;;;11.77;;
82646;SDS011;72325;41.910;22.404;2023-11-22T08:40:06;12.35;;;9.52;;
82646;SDS011;72325;41.910;22.404;2023-11-22T08:42:33;17.05;;;11.50;;
82646;SDS011;72325;41.910;22.404;2023-11-22T08:45:01;19.02;;;12.82;;
82646;SDS011;72325;41.910;22.404;2023-11-22T08:47:28;12.48;;;9.32;;
82646;SDS011;72325;41.910;22.404;2023-11-22T08:49:54;10.55;;;8.80;;
82646;SDS011;72325;41.910;22.404;2023-11-22T08:52:22;13.43;;;9.07;;
82646;SDS011;72325;41.910;22.404;2023-11-22T08:54:48;13.60;;;9.68;;
82646;SDS011;72325;41.910;22.404;2023-11-22T08:57:15;15.13;;;9.93;;
82646;SDS011;72325;41.910;22.404;2023-11-22T08:59:41;11.80;;;9.38;;
82646;SDS011;72325;41.910;22.404;2023-11-22T09:05:10;26.77;;;17.42;;
82646;SDS011;72325;41.910;22.404;2023-11-22T09:07:37;28.08;;;20.55;;
82646;SDS011;72325;41.910;22.404;2023-11-22T09:10:04;23.00;;;16.77;;
82646;SDS011;72325;41.910;22.404;2023-11-22T09:12:37;19.52;;;14.77;;
82646;SDS011;72325;41.910;22.404;2023-11-22T09:15:09;25.38;;;16.30;;
82646;SDS011;72325;41.910;22.404;2023-11-22T09:21:13;28.30;;;17.35;;
82646;SDS011;72325;41.910;22.404;2023-11-22T09:23:39;19.80;;;12.75;;
82646;SDS011;72325;41.910;22.404;2023-11-22T09:26:06;16.00;;;10.30;;
82646;SDS011;72325;41.910;22.404;2023-11-22T09:28:32;13.73;;;10.65;;
82646;SDS011;72325;41.910;22.404;2023-11-22T09:30:58;11.93;;;8.95;;
82646;SDS011;72325;41.910;22.404;2023-11-22T09:33:31;15.93;;;11.02;;
82646;SDS011;72325;41.910;22.404;2023-11-22T09:35:58;14.30;;;10.02;;
82646;SDS011;72325;41.910;22.404;2023-11-22T09:38:24;14.95;;;10.73;;
82646;SDS011;72325;41.910;22.404;2023-11-22T09:40:50;12.45;;;8.65;;
82646;SDS011;72325;41.910;22.404;2023-11-22T09:43:17;17.52;;;12.70;;
82646;SDS011;72325;41.910;22.404;2023-11-22T09:45:44;13.95;;;10.15;;
82646;SDS011;72325;41.910;22.404;2023-11-22T09:48:14;16.55;;;11.13;;
82646;SDS011;72325;41.910;22.404;2023-11-22T09:55:53;23.77;;;17.33;;
82646;SDS011;72325;41.910;22.404;2023-11-22T09:58:20;21.60;;;14.90;;
82646;SDS011;72325;41.910;22.404;2023-11-22T10:00:47;20.52;;;13.68;;
82646;SDS011;72325;41.910;22.404;2023-11-22T10:03:14;17.13;;;12.30;;
82646;SDS011;72325;41.910;22.404;2023-11-22T10:05:42;17.00;;;10.32;;
82646;SDS011;72325;41.910;22.404;2023-11-22T10:08:08;11.65;;;7.88;;
82646;SDS011;72325;41.910;22.404;2023-11-22T10:10:37;7.90;;;6.45;;
82646;SDS011;72325;41.910;22.404;2023-11-22T10:13:05;11.85;;;8.30;;
82646;SDS011;72325;41.910;22.404;2023-11-22T10:15:31;11.82;;;7.25;;
82646;SDS011;72325;41.910;22.404;2023-11-22T10:17:57;10.32;;;7.50;;
82646;SDS011;72325;41.910;22.404;2023-11-22T10:20:35;12.50;;;9.23;;
82646;SDS011;72325;41.910;22.404;2023-11-22T10:23:01;21.05;;;14.65;;
82646;SDS011;72325;41.910;22.404;2023-11-22T10:25:28;36.30;;;23.27;;
82646;SDS011;72325;41.910;22.404;2023-11-22T10:30:23;21.77;;;15.32;;
82646;SDS011;72325;41.910;22.404;2023-11-22T10:35:55;19.13;;;13.90;;
82646;SDS011;72325;41.910;22.404;2023-11-22T10:38:22;19.08;;;14.40;;
82646;SDS011;72325;41.910;22.404;2023-11-22T10:40:48;16.63;;;11.55;;
82646;SDS011;72325;41.910;22.404;2023-11-22T10:43:17;23.10;;;13.52;;
82646;SDS011;72325;41.910;22.404;2023-11-22T10:45:44;17.92;;;12.48;;
82646;SDS011;72325;41.910;22.404;2023-11-22T10:51:32;10.50;;;8.02;;
82646;SDS011;72325;41.910;22.404;2023-11-22T10:54:02;14.85;;;9.57;;
82646;SDS011;72325;41.910;22.404;2023-11-22T10:56:28;20.83;;;14.00;;
82646;SDS011;72325;41.910;22.404;2023-11-22T10:58:58;22.95;;;17.75;;
82646;SDS011;72325;41.910;22.404;2023-11-22T11:01:24;19.98;;;13.35;;
82646;SDS011;72325;41.910;22.404;2023-11-22T11:03:55;15.15;;;11.57;;
82646;SDS011;72325;41.910;22.404;2023-11-22T11:06:23;12.38;;;9.77;;
82646;SDS011;72325;41.910;22.404;2023-11-22T11:08:53;14.50;;;10.10;;
82646;SDS011;72325;41.910;22.404;2023-11-22T11:11:20;16.05;;;12.30;;
82646;SDS011;72325;41.910;22.404;2023-11-22T11:13:47;13.10;;;10.27;;
82646;SDS011;72325;41.910;22.404;2023-11-22T11:16:13;11.68;;;9.32;;
82646;SDS011;72325;41.910;22.404;2023-11-22T11:18:39;17.60;;;13.15;;
82646;SDS011;72325;41.910;22.404;2023-11-22T11:21:09;15.95;;;12.75;;
82646;SDS011;72325;41.910;22.404;2023-11-22T11:23:38;16.10;;;13.27;;
82646;SDS011;72325;41.910;22.404;2023-11-22T11:26:16;16.23;;;12.10;;
82646;SDS011;72325;41.910;22.404;2023-11-22T11:28:44;14.55;;;10.88;;
82646;SDS011;72325;41.910;22.404;2023-11-22T11:31:12;18.63;;;13.07;;
82646;SDS011;72325;41.910;22.404;2023-11-22T11:34:00;21.90;;;12.50;;
82646;SDS011;72325;41.910;22.404;2023-11-22T11:36:30;10.82;;;8.57;;
82646;SDS011;72325;41.910;22.404;2023-11-22T11:38:57;10.98;;;7.95;;
82646;SDS011;72325;41.910;22.404;2023-11-22T11:41:28;16.17;;;12.48;;
82646;SDS011;72325;41.910;22.404;2023-11-22T11:43:57;11.57;;;8.05;;
82646;SDS011;72325;41.910;22.404;2023-11-22T11:46:24;11.52;;;8.25;;
82646;SDS011;72325;41.910;22.404;2023-11-22T11:48:52;10.18;;;7.15;;
82646;SDS011;72325;41.910;22.404;2023-11-22T11:51:25;21.40;;;14.13;;
82646;SDS011;72325;41.910;22.404;2023-11-22T11:53:52;13.98;;;10.75;;
82646;SDS011;72325;41.910;22.404;2023-11-22T11:56:19;15.77;;;10.98;;
82646;SDS011;72325;41.910;22.404;2023-11-22T11:58:45;13.25;;;9.45;;
82646;SDS011;72325;41.910;22.404;2023-11-22T12:01:13;11.77;;;8.38;;
82646;SDS011;72325;41.910;22.404;2023-11-22T12:07:01;13.25;;;7.65;;
82646;SDS011;72325;41.910;22.404;2023-11-22T12:09:27;14.48;;;9.20;;
82646;SDS011;72325;41.910;22.404;2023-11-22T12:11:56;11.18;;;7.07;;
82646;SDS011;72325;41.910;22.404;2023-11-22T12:14:23;11.98;;;8.25;;
82646;SDS011;72325;41.910;22.404;2023-11-22T12:16:50;12.20;;;7.65;;
82646;SDS011;72325;41.910;22.404;2023-11-22T12:19:22;10.20;;;7.93;;
82646;SDS011;72325;41.910;22.404;2023-11-22T12:21:49;9.88;;;7.72;;
82646;SDS011;72325;41.910;22.404;2023-11-22T12:24:15;8.13;;;6.15;;
82646;SDS011;72325;41.910;22.404;2023-11-22T12:26:45;8.18;;;5.30;;
82646;SDS011;72325;41.910;22.404;2023-11-22T12:29:13;11.30;;;8.25;;
82646;SDS011;72325;41.910;22.404;2023-11-22T12:31:46;16.75;;;10.13;;
82646;SDS011;72325;41.910;22.404;2023-11-22T12:34:15;12.65;;;9.30;;
82646;SDS011;72325;41.910;22.404;2023-11-22T12:36:41;13.18;;;9.23;;
82646;SDS011;72325;41.910;22.404;2023-11-22T12:39:08;14.82;;;12.10;;
82646;SDS011;72325;41.910;22.404;2023-11-22T12:41:42;19.00;;;13.52;;
82646;SDS011;72325;41.910;22.404;2023-11-22T12:44:08;13.50;;;10.05;;
82646;SDS011;72325;41.910;22.404;2023-11-22T12:52:41;14.63;;;9.20;;
82646;SDS011;72325;41.910;22.404;2023-11-22T12:55:07;12.98;;;9.18;;
82646;SDS011;72325;41.910;22.404;2023-11-22T12:57:33;24.70;;;16.80;;
82646;SDS011;72325;41.910;22.404;2023-11-22T12:59:59;14.77;;;10.90;;
82646;SDS011;72325;41.910;22.404;2023-11-22T13:02:26;17.48;;;13.43;;
82646;SDS011;72325;41.910;22.404;2023-11-22T13:04:52;14.95;;;11.30;;
82646;SDS011;72325;41.910;22.404;2023-11-22T13:07:18;16.85;;;11.15;;
82646;SDS011;72325;41.910;22.404;2023-11-22T13:09:45;12.90;;;9.90;;
82646;SDS011;72325;41.910;22.404;2023-11-22T13:12:11;13.23;;;11.55;;
82646;SDS011;72325;41.910;22.404;2023-11-22T13:14:37;15.93;;;11.90;;
82646;SDS011;72325;41.910;22.404;2023-11-22T13:17:04;18.10;;;14.00;;
82646;SDS011;72325;41.910;22.404;2023-11-22T13:19:32;34.00;;;20.73;;
82646;SDS011;72325;41.910;22.404;2023-11-22T13:21:58;33.38;;;22.88;;
82646;SDS011;72325;41.910;22.404;2023-11-22T13:24:24;18.98;;;13.13;;
82646;SDS011;72325;41.910;22.404;2023-11-22T13:26:50;14.15;;;11.10;;
82646;SDS011;72325;41.910;22.404;2023-11-22T13:29:16;12.15;;;8.27;;
82646;SDS011;72325;41.910;22.404;2023-11-22T13:31:43;11.05;;;7.53;;
82646;SDS011;72325;41.910;22.404;2023-11-22T13:37:14;8.70;;;7.75;;
82646;SDS011;72325;41.910;22.404;2023-11-22T13:39:41;10.70;;;8.35;;
82646;SDS011;72325;41.910;22.404;2023-11-22T13:42:07;8.20;;;6.28;;
82646;SDS011;72325;41.910;22.404;2023-11-22T13:44:34;11.55;;;9.35;;
82646;SDS011;72325;41.910;22.404;2023-11-22T13:47:00;12.57;;;8.75;;
82646;SDS011;72325;41.910;22.404;2023-11-22T13:49:26;8.52;;;7.13;;
82646;SDS011;72325;41.910;22.404;2023-11-22T13:51:52;13.60;;;9.07;;
82646;SDS011;72325;41.910;22.404;2023-11-22T13:54:18;13.68;;;8.88;;
82646;SDS011;72325;41.910;22.404;2023-11-22T13:56:44;12.57;;;9.13;;
82646;SDS011;72325;41.910;22.404;2023-11-22T13:59:10;13.05;;;9.55;;
82646;SDS011;72325;41.910;22.404;2023-11-22T14:01:36;11.48;;;10.25;;
82646;SDS011;72325;41.910;22.404;2023-11-22T14:07:08;20.25;;;14.32;;
82646;SDS011;72325;41.910;22.404;2023-11-22T14:09:34;21.25;;;16.85;;
82646;SDS011;72325;41.910;22.404;2023-11-22T14:12:01;30.13;;;22.45;;
82646;SDS011;72325;41.910;22.404;2023-11-22T14:14:28;27.83;;;21.27;;
82646;SDS011;72325;41.910;22.404;2023-11-22T14:16:54;35.88;;;21.80;;
82646;SDS011;72325;41.910;22.404;2023-11-22T14:22:23;39.58;;;21.52;;
82646;SDS011;72325;41.910;22.404;2023-11-22T14:24:50;42.20;;;23.73;;
82646;SDS011;72325;41.910;22.404;2023-11-22T14:27:17;34.20;;;22.45;;
82646;SDS011;72325;41.910;22.404;2023-11-22T14:29:44;34.15;;;23.20;;
82646;SDS011;72325;41.910;22.404;2023-11-22T14:32:13;40.30;;;26.10;;
82646;SDS011;72325;41.910;22.404;2023-11-22T14:34:39;28.40;;;22.40;;
82646;SDS011;72325;41.910;22.404;2023-11-22T14:37:08;37.17;;;24.42;;
82646;SDS011;72325;41.910;22.404;2023-11-22T14:39:34;25.20;;;18.58;;
82646;SDS011;72325;41.910;22.404;2023-11-22T14:42:01;29.38;;;18.35;;
82646;SDS011;72325;41.910;22.404;2023-11-22T14:44:28;34.45;;;22.88;;
82646;SDS011;72325;41.910;22.404;2023-11-22T14:46:54;31.40;;;19.00;;
82646;SDS011;72325;41.910;22.404;2023-11-22T14:52:23;79.63;;;60.13;;
82646;SDS011;72325;41.910;22.404;2023-11-22T14:54:49;105.82;;;76.78;;
82646;SDS011;72325;41.910;22.404;2023-11-22T14:57:17;100.85;;;67.43;;
82646;SDS011;72325;41.910;22.404;2023-11-22T14:59:43;33.08;;;24.77;;
82646;SDS011;72325;41.910;22.404;2023-11-22T15:02:10;16.58;;;12.77;;
82646;SDS011;72325;41.910;22.404;2023-11-22T15:07:59;11.30;;;9.10;;
82646;SDS011;72325;41.910;22.404;2023-11-22T15:10:25;9.73;;;7.90;;
82646;SDS011;72325;41.910;22.404;2023-11-22T15:12:51;11.45;;;8.88;;
82646;SDS011;72325;41.910;22.404;2023-11-22T15:15:18;14.38;;;11.10;;
82646;SDS011;72325;41.910;22.404;2023-11-22T15:17:46;12.45;;;9.88;;
82646;SDS011;72325;41.910;22.404;2023-11-22T15:20:12;9.40;;;8.40;;
82646;SDS011;72325;41.910;22.404;2023-11-22T15:22:40;18.17;;;15.20;;
82646;SDS011;72325;41.910;22.404;2023-11-22T15:25:07;19.73;;;15.45;;
82646;SDS011;72325;41.910;22.404;2023-11-22T15:27:34;22.45;;;14.38;;
82646;SDS011;72325;41.910;22.404;2023-11-22T15:30:01;13.70;;;9.85;;
82646;SDS011;72325;41.910;22.404;2023-11-22T15:32:28;18.33;;;14.02;;
82646;SDS011;72325;41.910;22.404;2023-11-22T15:34:54;22.75;;;18.90;;
82646;SDS011;72325;41.910;22.404;2023-11-22T15:37:20;17.85;;;14.43;;
82646;SDS011;72325;41.910;22.404;2023-11-22T15:39:46;9.93;;;8.93;;
82646;SDS011;72325;41.910;22.404;2023-11-22T15:42:12;12.32;;;9.57;;
82646;SDS011;72325;41.910;22.404;2023-11-22T15:44:39;21.23;;;18.23;;
82646;SDS011;72325;41.910;22.404;2023-11-22T15:47:06;12.45;;;8.98;;
82646;SDS011;72325;41.910;22.404;2023-11-22T15:52:36;18.70;;;13.85;;
82646;SDS011;72325;41.910;22.404;2023-11-22T15:55:03;67.78;;;49.25;;
82646;SDS011;72325;41.910;22.404;2023-11-22T15:57:30;63.58;;;46.67;;
82646;SDS011;72325;41.910;22.404;2023-11-22T15:59:56;61.17;;;45.70;;
82646;SDS011;72325;41.910;22.404;2023-11-22T16:02:22;49.42;;;38.97;;
82646;SDS011;72325;41.910;22.404;2023-11-22T16:04:48;42.10;;;32.00;;